Time;durP1;ratioP1;P1;durP2;ratioP2;P2;SDS_P1;SDS_P2;PMS_P1;PMS_P2;Temp;Humidity;BMP_temperature;BMP_pressure;BME280_temperature;BME280_humidity;BME280_pressure;Samples;Min_cycle;Max_cycle;Signal;HPM_P1;HPM_P2
2022/06/05 00:01:16;;;;;;;7.70;6.80;;;19.90;99.90;;;;;;7384625;19;20501;-80
2022/06/05 00:03:55;;;;;;;9.63;7.60;;;19.90;99.90;;;;;;7389441;19;20406;-80
2022/06/05 00:06:35;;;;;;;8.70;7.83;;;19.80;99.90;;;;;;7386304;19;20380;-79
2022/06/05 00:09:14;;;;;;;8.13;7.33;;;19.60;99.90;;;;;;7387392;19;20934;-79
2022/06/05 00:11:50;;;;;;;8.53;7.73;;;19.50;99.90;;;;;;7382228;19;20380;-79
2022/06/05 00:14:19;;;;;;;8.30;7.50;;;19.50;99.90;;;;;;7377022;19;20412;-80
2022/06/05 00:16:52;;;;;;;13.70;7.63;;;19.60;99.90;;;;;;7371468;19;20404;-80
2022/06/05 00:19:22;;;;;;;8.00;7.23;;;19.80;99.90;;;;;;7374712;19;20464;-81
2022/06/05 00:21:54;;;;;;;8.50;7.67;;;20.00;99.90;;;;;;7378532;19;20416;-80
2022/06/05 00:24:24;;;;;;;8.63;7.60;;;19.80;99.90;;;;;;7350916;19;20416;-80
2022/06/05 00:27:00;;;;;;;7.67;6.63;;;19.50;99.90;;;;;;7372560;19;20963;-80
2022/06/05 00:29:57;;;;;;;8.40;7.60;;;19.50;99.90;;;;;;7372172;19;20412;-80
2022/06/05 00:32:35;;;;;;;8.40;7.60;;;19.50;99.90;;;;;;7373710;19;20408;-80
2022/06/05 00:35:04;;;;;;;9.57;7.37;;;19.40;99.90;;;;;;7371904;19;21151;-79
2022/06/05 00:37:47;;;;;;;8.40;7.60;;;19.50;99.90;;;;;;7368353;19;21113;-79
2022/06/05 00:40:36;;;;;;;9.00;7.57;;;19.70;99.90;;;;;;7371368;19;21004;-78
2022/06/05 00:43:12;;;;;;;9.43;8.00;;;19.70;99.90;;;;;;7373102;19;20389;-79
2022/06/05 00:45:42;;;;;;;8.70;7.80;;;19.90;99.90;;;;;;7365407;19;20368;-78
2022/06/05 00:48:13;;;;;;;9.50;7.63;;;19.80;99.90;;;;;;7370537;19;20375;-79
2022/06/05 00:50:44;;;;;;;8.83;7.97;;;19.80;99.90;;;;;;7364512;19;20396;-79
2022/06/05 00:53:16;;;;;;;8.53;7.10;;;19.90;99.90;;;;;;7368782;19;20436;-80
2022/06/05 00:55:50;;;;;;;7.53;6.90;;;19.80;99.90;;;;;;7366588;19;20416;-80
2022/06/05 00:58:21;;;;;;;8.37;7.67;;;19.80;99.90;;;;;;7359084;19;20424;-80
2022/06/05 01:00:54;;;;;;;8.10;7.40;;;19.50;99.90;;;;;;7364714;19;20412;-80
2022/06/05 01:03:25;;;;;;;8.20;7.40;;;19.50;99.90;;;;;;7366235;19;20427;-80
2022/06/05 01:05:54;;;;;;;7.83;7.10;;;19.60;99.90;;;;;;7381968;19;20415;-80
2022/06/05 01:08:26;;;;;;;10.43;7.80;;;19.60;99.90;;;;;;7372014;19;20403;-80
2022/06/05 01:11:08;;;;;;;8.00;7.30;;;19.50;99.90;;;;;;7375567;19;20408;-80
2022/06/05 01:13:47;;;;;;;8.70;7.80;;;19.70;99.90;;;;;;7367961;19;20400;-80
2022/06/05 01:16:30;;;;;;;8.33;7.63;;;19.70;99.90;;;;;;7375917;19;20380;-80
2022/06/05 01:19:11;;;;;;;9.20;8.30;;;19.60;99.90;;;;;;7367578;19;20394;-80
2022/06/05 01:22:03;;;;;;;9.17;8.27;;;19.40;99.90;;;;;;7371358;19;20410;-80
2022/06/05 01:24:55;;;;;;;8.70;7.90;;;19.50;99.90;;;;;;7370858;19;20403;-80
2022/06/05 01:27:31;;;;;;;10.60;8.33;;;19.40;99.90;;;;;;7379493;19;20415;-79
2022/06/05 01:30:05;;;;;;;8.00;7.30;;;19.50;99.90;;;;;;7373687;19;20417;-79
2022/06/05 01:32:41;;;;;;;8.67;7.47;;;19.60;99.90;;;;;;7371241;19;20415;-79
2022/06/05 01:35:17;;;;;;;8.50;7.60;;;19.60;99.90;;;;;;7370883;19;20407;-80
2022/06/05 01:37:49;;;;;;;8.30;7.50;;;;;;;;;;7370041;19;20407;-80
2022/06/05 01:40:24;;;;;;;8.93;8.13;;;19.90;99.90;;;;;;7369279;19;20400;-79
2022/06/05 01:43:01;;;;;;;10.20;7.97;;;19.60;99.90;;;;;;7372565;19;20505;-81
2022/06/05 01:45:37;;;;;;;10.10;8.37;;;19.50;99.90;;;;;;7368673;19;20387;-79
2022/06/05 01:48:09;;;;;;;9.00;8.20;;;19.50;99.90;;;;;;7374093;19;21366;-79
2022/06/05 01:50:41;;;;;;;8.90;8.10;;;;;;;;;;7367348;19;20420;-80
2022/06/05 01:53:18;;;;;;;9.60;8.63;;;18.90;99.90;;;;;;7372495;19;20438;-80
2022/06/05 01:55:53;;;;;;;10.30;9.30;;;19.00;99.90;;;;;;7372522;19;20391;-80
2022/06/05 01:58:31;;;;;;;8.83;7.97;;;19.00;99.90;;;;;;7368116;19;20963;-79
2022/06/05 02:01:05;;;;;;;10.77;8.73;;;19.20;99.90;;;;;;7369188;19;21773;-79
2022/06/05 02:03:44;;;;;;;9.53;8.63;;;19.10;99.90;;;;;;7374772;19;20419;-80
2022/06/05 02:06:19;;;;;;;9.00;8.10;;;19.00;99.90;;;;;;7374805;19;20418;-80
2022/06/05 02:08:52;;;;;;;9.03;8.13;;;19.10;99.90;;;;;;7376034;19;20392;-80
2022/06/05 02:11:25;;;;;;;9.93;9.03;;;19.10;99.90;;;;;;7369797;19;20765;-79
2022/06/05 02:14:04;;;;;;;9.00;8.20;;;19.00;99.90;;;;;;7375379;19;20491;-80
2022/06/05 02:16:37;;;;;;;10.63;8.80;;;19.00;99.90;;;;;;7374084;19;20396;-80
2022/06/05 02:19:12;;;;;;;10.90;9.00;;;19.10;99.90;;;;;;7374515;19;20404;-80
2022/06/05 02:21:43;;;;;;;10.90;8.83;;;19.10;99.90;;;;;;7371173;19;20408;-80
2022/06/05 02:24:15;;;;;;;9.53;8.53;;;19.00;99.90;;;;;;7372308;19;20387;-80
2022/06/05 02:26:45;;;;;;;9.77;8.80;;;19.00;99.90;;;;;;7376270;19;21344;-79
2022/06/05 02:29:22;;;;;;;10.10;8.90;;;18.70;99.90;;;;;;7377911;19;20476;-79
2022/06/05 02:32:07;;;;;;;10.37;9.37;;;18.70;99.90;;;;;;7369177;19;20404;-80
2022/06/05 02:34:47;;;;;;;11.30;10.20;;;18.80;99.90;;;;;;7374409;19;21008;-80
2022/06/05 02:37:32;;;;;;;10.00;9.00;;;19.10;99.90;;;;;;7377275;19;20392;-80
2022/06/05 02:40:10;;;;;;;10.93;9.93;;;19.40;99.90;;;;;;7372210;19;20408;-80
2022/06/05 02:42:45;;;;;;;8.60;7.67;;;19.70;99.90;;;;;;7371230;19;20934;-79
2022/06/05 02:45:27;;;;;;;9.90;9.00;;;19.90;99.90;;;;;;7373605;19;20904;-80
2022/06/05 02:48:05;;;;;;;10.70;9.60;;;20.20;99.90;;;;;;7369855;19;20833;-80
2022/06/05 02:50:41;;;;;;;10.33;9.33;;;20.10;99.90;;;;;;7374168;19;20414;-79
2022/06/05 02:53:12;;;;;;;12.27;10.60;;;20.10;99.90;;;;;;7377675;19;20414;-79
2022/06/05 02:55:41;;;;;;;11.17;10.07;;;19.80;99.90;;;;;;7373342;19;21482;-79
2022/06/05 02:58:15;;;;;;;11.47;10.07;;;19.60;99.90;;;;;;7371403;19;20448;-80
2022/06/05 03:03:27;;;;;;;10.23;9.23;;;19.70;99.90;;;;;;7369397;19;20396;-80
2022/06/05 03:03:35;;;;;;;10.60;9.60;;;19.70;99.90;;;;;;7366087;19;20404;-80
2022/06/05 03:06:07;;;;;;;10.03;8.93;;;19.80;99.90;;;;;;7374794;19;21185;-79
2022/06/05 03:08:36;;;;;;;9.70;8.70;;;20.00;99.90;;;;;;7374885;19;20470;-80
2022/06/05 03:11:08;;;;;;;10.33;9.43;;;20.20;99.90;;;;;;7374390;19;21212;-80
2022/06/05 03:13:37;;;;;;;10.07;9.07;;;19.90;99.90;;;;;;7371194;19;20422;-80
2022/06/05 03:16:10;;;;;;;8.80;8.00;;;19.80;99.90;;;;;;7369056;19;21068;-80
2022/06/05 03:18:40;;;;;;;9.83;8.63;;;19.80;99.90;;;;;;7372224;19;20529;-80
2022/06/05 03:21:10;;;;;;;9.20;8.43;;;19.70;99.90;;;;;;7365997;19;21216;-80
2022/06/05 03:23:40;;;;;;;10.57;9.47;;;19.60;99.90;;;;;;7373463;19;20442;-80
2022/06/05 03:26:12;;;;;;;9.80;8.53;;;19.80;99.90;;;;;;7374581;19;20446;-78
2022/06/05 03:28:42;;;;;;;9.93;9.00;;;19.90;99.90;;;;;;7373365;19;20408;-80
2022/06/05 03:31:14;;;;;;;11.90;8.77;;;20.10;99.90;;;;;;7368229;19;20862;-80
2022/06/05 03:33:43;;;;;;;9.80;8.90;;;19.90;99.90;;;;;;7363252;19;20418;-80
2022/06/05 03:36:15;;;;;;;9.47;8.57;;;19.80;99.90;;;;;;7374002;19;20376;-80
2022/06/05 03:38:45;;;;;;;9.70;8.37;;;19.80;99.90;;;;;;7373775;19;21040;-80
2022/06/05 03:41:18;;;;;;;9.97;8.50;;;19.80;99.90;;;;;;7374265;19;20399;-77
2022/06/05 03:43:50;;;;;;;11.17;10.07;;;19.70;99.90;;;;;;7369615;19;20459;-79
2022/06/05 03:46:22;;;;;;;9.77;8.77;;;19.90;99.90;;;;;;7401853;19;20429;-79
2022/06/05 03:48:52;;;;;;;8.30;7.60;;;19.90;99.90;;;;;;7413867;19;20408;-79
2022/06/05 03:51:23;;;;;;;9.53;8.57;;;20.00;99.90;;;;;;7410606;19;20428;-79
2022/06/05 03:53:55;;;;;;;8.80;8.00;;;20.10;99.90;;;;;;7413369;19;20416;-78
2022/06/05 03:56:26;;;;;;;10.33;7.90;;;20.30;99.90;;;;;;7412626;19;20434;-79
2022/06/05 03:58:57;;;;;;;11.30;8.50;;;20.40;99.90;;;;;;7411745;19;20432;-81
2022/06/05 04:01:31;;;;;;;9.73;8.83;;;20.40;99.90;;;;;;7407622;19;20482;-79
2022/06/05 04:04:01;;;;;;;9.17;8.27;;;20.40;99.90;;;;;;7409634;19;20437;-78
2022/06/05 04:06:32;;;;;;;10.17;9.07;;;20.40;99.90;;;;;;7405429;19;20420;-81
2022/06/05 04:09:04;;;;;;;9.57;8.70;;;20.50;99.90;;;;;;7391978;19;21087;-80
2022/06/05 04:11:36;;;;;;;10.37;9.37;;;20.60;99.90;;;;;;7392876;19;20392;-79
2022/06/05 04:14:07;;;;;;;9.00;8.10;;;20.50;99.90;;;;;;7388884;19;20443;-80
2022/06/05 04:16:42;;;;;;;10.03;9.10;;;20.50;99.90;;;;;;7390544;19;20745;-80
2022/06/05 04:19:12;;;;;;;10.80;9.80;;;20.60;99.90;;;;;;7389903;19;20928;-80
2022/06/05 04:21:44;;;;;;;10.90;9.70;;;20.70;99.90;;;;;;7391013;19;20400;-80
2022/06/05 04:24:14;;;;;;;12.43;11.23;;;20.60;99.90;;;;;;7391740;19;20412;-80
2022/06/05 04:26:44;;;;;;;12.13;10.40;;;20.00;99.90;;;;;;7392089;19;20403;-80
2022/06/05 04:29:14;;;;;;;11.80;10.70;;;19.70;99.90;;;;;;7389806;19;20404;-79
2022/06/05 04:31:49;;;;;;;10.70;9.70;;;19.60;99.90;;;;;;7385226;19;20412;-80
2022/06/05 04:34:22;;;;;;;10.53;9.50;;;19.90;99.90;;;;;;7377589;19;20419;-80
2022/06/05 04:36:52;;;;;;;10.63;9.60;;;20.10;99.90;;;;;;7373484;19;20430;-80
2022/06/05 04:39:21;;;;;;;11.90;9.33;;;20.20;99.90;;;;;;7377549;19;20412;-79
2022/06/05 04:41:51;;;;;;;11.27;10.17;;;20.40;99.90;;;;;;7369997;19;20415;-80
2022/06/05 04:44:21;;;;;;;11.67;10.50;;;20.50;99.90;;;;;;7373235;19;20428;-82
2022/06/05 04:46:56;;;;;;;11.33;10.20;;;20.50;99.90;;;;;;7372095;19;20474;-80
2022/06/05 04:49:25;;;;;;;12.43;10.90;;;20.60;99.90;;;;;;7373504;19;20465;-80
2022/06/05 04:51:57;;;;;;;12.27;11.07;;;20.60;99.90;;;;;;7373055;19;20403;-80
2022/06/05 04:54:27;;;;;;;12.13;10.10;;;20.50;99.90;;;;;;7371291;19;20407;-80
2022/06/05 04:56:57;;;;;;;10.80;9.80;;;20.50;99.90;;;;;;7356510;19;20558;-80
2022/06/05 04:59:28;;;;;;;11.10;10.10;;;20.50;99.90;;;;;;7373096;19;21113;-80
2022/06/05 05:02:03;;;;;;;10.60;9.60;;;20.50;99.90;;;;;;7366583;19;20803;-80
2022/06/05 05:04:37;;;;;;;10.20;9.20;;;20.50;99.90;;;;;;7367848;19;20408;-80
2022/06/05 05:07:07;;;;;;;10.83;9.93;;;20.50;99.90;;;;;;7372526;19;20472;-80
2022/06/05 05:09:39;;;;;;;9.47;8.57;;;20.50;99.90;;;;;;7363982;19;20404;-79
2022/06/05 05:12:11;;;;;;;11.80;10.30;;;20.50;99.90;;;;;;7362312;19;20396;-79
2022/06/05 05:14:41;;;;;;;13.80;10.97;;;20.60;99.90;;;;;;7372250;19;20430;-80
2022/06/05 05:17:16;;;;;;;11.80;10.60;;;20.50;99.90;;;;;;7361380;19;21129;-80
2022/06/05 05:19:46;;;;;;;11.03;9.50;;;20.50;99.90;;;;;;7361851;19;20372;-80
2022/06/05 05:22:18;;;;;;;13.67;10.97;;;20.40;99.90;;;;;;7372352;19;20387;-80
2022/06/05 05:24:48;;;;;;;11.47;10.30;;;20.40;99.90;;;;;;7365983;19;20753;-79
2022/06/05 05:27:22;;;;;;;13.50;10.13;;;20.40;99.90;;;;;;7365304;19;20481;-79
2022/06/05 05:29:51;;;;;;;11.50;10.40;;;20.50;99.90;;;;;;7368037;19;20404;-79
2022/06/05 05:32:23;;;;;;;12.20;11.00;;;20.50;99.90;;;;;;7361156;19;20846;-79
2022/06/05 05:34:53;;;;;;;15.00;12.23;;;20.60;99.90;;;;;;7355176;19;20446;-79
2022/06/05 05:37:22;;;;;;;16.03;12.40;;;20.50;99.90;;;;;;7366169;19;20430;-79
2022/06/05 05:42:37;;;;;;;16.20;14.03;;;19.90;99.90;;;;;;7373630;19;20444;-78
2022/06/05 05:45:08;;;;;;;14.70;13.20;;;19.30;99.90;;;;;;7366464;19;20403;-78
2022/06/05 05:47:40;;;;;;;16.50;14.80;;;19.30;99.90;;;;;;7365462;19;20416;-78
2022/06/05 05:50:15;;;;;;;14.53;13.10;;;19.30;99.90;;;;;;7376190;19;20384;-78
2022/06/05 05:52:45;;;;;;;16.20;12.87;;;19.50;99.90;;;;;;7377354;19;20404;-78
2022/06/05 05:55:16;;;;;;;13.53;12.10;;;19.60;99.90;;;;;;7374261;19;20400;-78
2022/06/05 05:57:50;;;;;;;15.37;12.70;;;19.70;99.90;;;;;;7338758;19;20446;-78
2022/06/05 06:00:22;;;;;;;15.83;12.53;;;19.80;99.90;;;;;;7368196;19;21194;-78
2022/06/05 06:02:54;;;;;;;16.40;12.70;;;19.90;99.90;;;;;;7370746;19;20446;-78
2022/06/05 06:05:24;;;;;;;15.50;13.90;;;19.80;99.90;;;;;;7377885;19;20992;-78
2022/06/05 06:07:53;;;;;;;15.00;11.87;;;19.70;99.90;;;;;;7374165;19;20851;-78
2022/06/05 06:10:22;;;;;;;13.80;12.40;;;19.60;99.90;;;;;;7375047;19;20432;-77
2022/06/05 06:12:52;;;;;;;12.33;10.27;;;19.50;99.90;;;;;;7376961;19;20411;-78
2022/06/05 06:15:24;;;;;;;14.03;11.50;;;19.10;99.90;;;;;;7370872;19;20956;-78
2022/06/05 06:17:56;;;;;;;20.30;11.97;;;;;;;;;;7366824;19;20429;-78
2022/06/05 06:20:25;;;;;;;17.23;13.50;;;17.90;99.90;;;;;;7372703;19;21490;-85
2022/06/05 06:22:57;;;;;;;15.70;13.00;;;17.50;99.90;;;;;;7381467;19;20784;-83
2022/06/05 06:25:27;;;;;;;14.33;12.87;;;17.50;99.90;;;;;;7377467;19;20928;-85
2022/06/05 06:27:56;;;;;;;21.17;12.80;;;17.50;99.90;;;;;;7380203;19;20412;-85
2022/06/05 06:30:26;;;;;;;14.43;12.17;;;17.50;99.90;;;;;;7377227;19;20423;-84
2022/06/05 06:32:58;;;;;;;15.40;12.20;;;17.50;99.90;;;;;;7380790;19;20400;-83
2022/06/05 06:35:27;;;;;;;13.03;10.10;;;17.40;99.90;;;;;;7380550;19;20752;-84
2022/06/05 06:37:57;;;;;;;14.57;10.77;;;17.50;99.90;;;;;;7380430;19;20483;-85
2022/06/05 06:40:26;;;;;;;15.87;11.70;;;17.50;99.90;;;;;;7380064;19;20504;-84
2022/06/05 06:42:58;;;;;;;15.13;13.13;;;17.30;99.90;;;;;;7379372;19;20400;-84
2022/06/05 06:45:28;;;;;;;21.27;14.00;;;17.20;99.90;;;;;;7371499;19;20412;-83
2022/06/05 06:48:00;;;;;;;14.57;11.43;;;17.20;99.90;;;;;;7375135;19;20413;-83
2022/06/05 06:50:32;;;;;;;12.70;10.80;;;17.30;99.90;;;;;;7375627;19;20404;-83
2022/06/05 06:53:01;;;;;;;16.07;10.10;;;17.30;99.90;;;;;;7372856;19;20404;-83
2022/06/05 06:55:32;;;;;;;11.70;10.43;;;17.30;99.90;;;;;;7376681;19;20488;-84
2022/06/05 06:58:02;;;;;;;18.03;9.00;;;17.40;99.90;;;;;;7377287;19;20467;-83
2022/06/05 07:00:34;;;;;;;12.13;10.00;;;17.50;99.90;;;;;;7372766;19;20761;-83
2022/06/05 07:03:06;;;;;;;11.03;8.93;;;17.60;99.90;;;;;;7374844;19;20786;-82
2022/06/05 07:05:36;;;;;;;8.60;7.60;;;17.60;99.90;;;;;;7377698;19;20919;-83
2022/06/05 07:08:07;;;;;;;11.40;7.97;;;17.70;99.90;;;;;;7374253;19;21852;-83
2022/06/05 07:10:37;;;;;;;10.40;7.47;;;17.90;99.90;;;;;;7373461;19;20407;-83
2022/06/05 07:13:07;;;;;;;12.33;7.10;;;17.90;99.90;;;;;;7375369;19;21767;-83
2022/06/05 07:15:41;;;;;;;8.40;6.20;;;17.90;99.90;;;;;;7372331;19;20502;-82
2022/06/05 07:18:13;;;;;;;7.10;5.70;;;17.90;99.90;;;;;;7368325;19;20420;-83
2022/06/05 07:20:45;;;;;;;7.30;6.33;;;18.00;99.90;;;;;;7375962;19;20405;-82
2022/06/05 07:23:14;;;;;;;7.80;7.00;;;18.00;99.90;;;;;;7371093;19;21138;-81
2022/06/05 07:25:49;;;;;;;12.70;6.77;;;18.20;99.90;;;;;;7373792;19;20447;-82
2022/06/05 07:28:19;;;;;;;9.43;7.27;;;18.40;99.90;;;;;;7386366;19;20425;-82
2022/06/05 07:30:50;;;;;;;11.60;6.83;;;18.40;99.90;;;;;;7411840;19;20401;-82
2022/06/05 07:33:24;;;;;;;9.37;6.20;;;18.40;99.90;;;;;;7403109;19;20429;-83
2022/06/05 07:35:58;;;;;;;7.57;5.30;;;18.50;99.90;;;;;;7404183;19;20427;-83
2022/06/05 07:38:28;;;;;;;8.70;6.00;;;18.50;99.90;;;;;;7390548;19;20418;-81
2022/06/05 07:40:57;;;;;;;7.30;5.17;;;18.50;99.90;;;;;;7392469;19;20876;-81
2022/06/05 07:43:26;;;;;;;7.00;6.30;;;18.60;99.90;;;;;;7383642;19;20423;-81
2022/06/05 07:45:56;;;;;;;9.37;6.23;;;18.60;99.90;;;;;;7391182;19;20507;-81
2022/06/05 07:48:29;;;;;;;8.20;6.20;;;18.50;99.90;;;;;;7397345;19;20535;-81
2022/06/05 07:56:30;;;;;;;7.80;6.00;;;18.90;99.90;;;;;;7369331;19;20466;-78
2022/06/05 07:59:02;;;;;;;7.10;5.77;;;19.10;99.90;;;;;;7368645;19;20424;-78
2022/06/05 08:01:32;;;;;;;8.40;6.20;;;19.20;99.90;;;;;;7372312;19;20412;-78
2022/06/05 08:04:04;;;;;;;6.63;5.90;;;19.40;99.90;;;;;;7364256;19;20401;-79
2022/06/05 08:06:34;;;;;;;5.60;5.10;;;19.60;99.90;;;;;;7365983;19;20431;-79
2022/06/05 08:09:05;;;;;;;10.10;6.17;;;19.40;99.90;;;;;;7367122;19;20902;-79
2022/06/05 08:11:35;;;;;;;7.43;5.23;;;19.40;99.90;;;;;;7366332;19;20379;-79
2022/06/05 08:14:05;;;;;;;6.47;5.30;;;19.50;99.90;;;;;;7354109;19;20393;-79
2022/06/05 08:16:34;;;;;;;7.40;5.40;;;19.50;99.90;;;;;;7364951;19;20442;-78
2022/06/05 08:19:07;;;;;;;9.40;5.70;;;19.60;99.90;;;;;;7367905;19;20412;-79
2022/06/05 08:21:36;;;;;;;6.53;5.17;;;19.60;99.90;;;;;;7352308;19;20449;-78
2022/06/05 08:24:06;;;;;;;7.63;5.30;;;19.60;99.90;;;;;;7369037;19;20400;-78
2022/06/05 08:26:36;;;;;;;6.00;5.30;;;19.60;99.90;;;;;;7371743;19;20380;-79
2022/06/05 08:29:06;;;;;;;6.50;5.50;;;19.80;99.90;;;;;;7373127;19;20443;-79
2022/06/05 08:31:37;;;;;;;5.60;5.10;;;20.00;99.90;;;;;;7366219;19;20559;-80
2022/06/05 08:34:12;;;;;;;5.80;5.20;;;20.30;99.90;;;;;;7371675;19;20412;-80
2022/06/05 08:36:44;;;;;;;4.53;3.63;;;20.50;99.90;;;;;;7369023;19;20424;-77
2022/06/05 08:42:07;;;;;;;4.50;3.40;;;20.30;99.90;;;;;;7369813;19;20970;-77
2022/06/05 08:44:43;;;;;;;3.23;2.93;;;20.30;99.90;;;;;;7371684;19;20368;-77
2022/06/05 08:47:20;;;;;;;3.03;2.73;;;20.30;99.90;;;;;;7369793;19;20419;-77
2022/06/05 08:50:08;;;;;;;4.17;3.20;;;20.10;99.90;;;;;;7369762;19;20821;-77
2022/06/05 08:52:49;;;;;;;2.87;2.53;;;20.00;99.90;;;;;;7371882;19;20916;-77
2022/06/05 08:55:25;;;;;;;2.43;2.23;;;20.10;99.90;;;;;;7373156;19;21420;-78
2022/06/05 08:57:59;;;;;;;2.77;2.47;;;20.30;99.90;;;;;;7367660;19;20439;-77
2022/06/05 09:00:36;;;;;;;3.03;2.20;;;20.60;99.90;;;;;;7372822;19;20403;-81
2022/06/05 09:03:13;;;;;;;4.63;2.20;;;21.10;99.90;;;;;;7371251;19;20392;-82
2022/06/05 09:05:48;;;;;;;3.30;2.80;;;21.60;99.90;;;;;;7373899;19;20416;-82
2022/06/05 09:08:21;;;;;;;4.70;2.10;;;22.00;99.90;;;;;;7374183;19;20998;-81
2022/06/05 09:10:53;;;;;;;2.63;2.40;;;22.20;99.90;;;;;;7374032;19;20494;-82
2022/06/05 09:13:28;;;;;;;3.20;1.80;;;22.20;99.90;;;;;;7371869;19;20405;-81
2022/06/05 09:16:01;;;;;;;2.50;1.60;;;22.40;99.90;;;;;;7374426;19;20527;-81
2022/06/05 09:18:37;;;;;;;1.93;1.47;;;22.50;99.90;;;;;;7372351;19;20420;-82
2022/06/05 09:21:15;;;;;;;2.87;1.50;;;22.50;99.90;;;;;;7374813;19;20415;-81
2022/06/05 09:23:54;;;;;;;2.33;1.53;;;22.90;99.90;;;;;;7375383;19;20496;-82
2022/06/05 09:26:42;;;;;;;1.57;1.47;;;23.40;99.90;;;;;;7377122;19;20422;-80
2022/06/05 09:29:37;;;;;;;2.87;1.40;;;23.90;99.90;;;;;;7378067;19;20408;-80
2022/06/05 09:32:45;;;;;;;3.20;1.60;;;24.00;99.90;;;;;;7378753;19;20412;-78
2022/06/05 09:35:23;;;;;;;1.30;1.13;;;24.10;99.90;;;;;;7374382;19;20428;-78
2022/06/05 09:38:00;;;;;;;2.00;1.23;;;24.20;99.90;;;;;;7373827;19;20396;-78
2022/06/05 09:40:36;;;;;;;2.60;1.33;;;24.20;99.90;;;;;;7378949;19;20383;-77
2022/06/05 09:43:52;;;;;;;3.80;1.50;;;23.80;99.90;;;;;;7374001;19;20476;-77
2022/06/05 09:46:37;;;;;;;2.67;1.20;;;23.90;99.90;;;;;;7368194;19;20960;-78
2022/06/05 09:49:17;;;;;;;3.10;1.40;;;23.80;99.90;;;;;;7377208;19;21499;-77
2022/06/05 09:51:47;;;;;;;3.53;1.40;;;23.80;99.90;;;;;;7376700;19;20517;-78
2022/06/05 09:54:25;;;;;;;1.67;1.00;;;23.70;99.90;;;;;;7377708;19;20389;-77
2022/06/05 09:59:55;;;;;;;3.63;1.27;;;23.90;99.90;;;;;;7376223;19;20405;-78
2022/06/05 10:02:25;;;;;;;2.80;1.67;;;24.20;99.90;;;;;;7375013;19;21190;-77
2022/06/05 10:04:55;;;;;;;3.67;1.20;;;25.00;99.90;;;;;;7372824;19;20439;-77
2022/06/05 10:07:33;;;;;;;3.47;1.20;;;24.50;99.90;;;;;;7375701;19;20404;-77
2022/06/05 10:10:17;;;;;;;1.47;1.20;;;24.90;99.90;;;;;;7372990;19;20436;-78
2022/06/05 10:12:53;;;;;;;2.40;1.47;;;25.60;99.90;;;;;;7371190;19;20432;-78
2022/06/05 10:15:29;;;;;;;4.17;1.13;;;26.40;99.90;;;;;;7364852;19;20399;-76
2022/06/05 10:18:01;;;;;;;1.77;1.33;;;26.50;99.90;;;;;;7370619;19;20433;-78
2022/06/05 10:20:49;;;;;;;2.20;0.90;;;26.50;99.90;;;;;;7367550;19;20384;-78
2022/06/05 10:23:36;;;;;;;2.27;1.60;;;26.30;99.90;;;;;;7369114;19;20424;-78
2022/06/05 10:26:22;;;;;;;2.00;1.07;;;25.50;99.90;;;;;;7369755;19;20416;-77
2022/06/05 10:28:55;;;;;;;2.30;1.37;;;24.90;99.90;;;;;;7374698;19;20439;-79
2022/06/05 10:31:32;;;;;;;2.30;1.60;;;24.50;99.90;;;;;;7373747;19;20396;-77
2022/06/05 10:34:12;;;;;;;2.13;1.30;;;24.00;99.90;;;;;;7372026;19;20390;-78
2022/06/05 10:36:56;;;;;;;4.63;1.70;;;23.70;99.90;;;;;;7375412;19;20392;-78
2022/06/05 10:39:34;;;;;;;2.00;1.73;;;23.70;99.90;;;;;;7372721;19;20445;-78
2022/06/05 10:42:28;;;;;;;3.80;1.50;;;23.70;99.90;;;;;;7373861;19;20418;-80
2022/06/05 10:45:10;;;;;;;2.33;1.93;;;23.40;99.90;;;;;;7374309;19;20411;-78
2022/06/05 10:47:49;;;;;;;4.67;2.77;;;23.20;99.90;;;;;;7374562;19;20416;-79
2022/06/05 10:50:22;;;;;;;3.97;3.17;;;22.80;99.90;;;;;;7378142;19;21719;-78
2022/06/05 10:52:59;;;;;;;5.37;3.33;;;22.40;99.90;;;;;;7376609;19;20401;-79
2022/06/05 10:55:37;;;;;;;3.67;3.37;;;21.60;99.90;;;;;;7372773;19;20411;-78
2022/06/05 10:58:18;;;;;;;8.03;4.00;;;20.90;99.90;;;;;;7369354;19;21283;-78
2022/06/05 11:01:04;;;;;;;4.83;4.20;;;20.70;99.90;;;;;;7376704;19;20420;-78
2022/06/05 11:03:51;;;;;;;4.80;4.30;;;20.60;99.90;;;;;;7375631;19;20503;-78
2022/06/05 11:06:28;;;;;;;5.17;4.67;;;20.40;99.90;;;;;;7372435;19;20400;-78
2022/06/05 11:09:10;;;;;;;11.53;5.50;;;20.30;99.90;;;;;;7375332;19;20924;-77
2022/06/05 11:14:41;;;;;;;6.93;5.40;;;20.20;99.90;;;;;;7376450;19;20960;-78
2022/06/05 11:17:26;;;;;;;7.23;5.30;;;20.30;99.90;;;;;;7375449;19;21344;-78
2022/06/05 11:20:07;;;;;;;6.93;5.43;;;20.20;99.90;;;;;;7373341;19;20541;-78
2022/06/05 11:22:37;;;;;;;7.93;5.10;;;20.30;99.90;;;;;;7374407;19;20419;-78
2022/06/05 11:25:23;;;;;;;5.33;4.60;;;20.20;99.90;;;;;;7373524;19;20459;-78
2022/06/05 11:28:11;;;;;;;7.87;4.40;;;20.40;99.90;;;;;;7375513;19;20508;-77
2022/06/05 11:30:51;;;;;;;6.47;4.17;;;20.40;99.90;;;;;;7374483;19;20384;-78
2022/06/05 11:33:24;;;;;;;4.70;3.50;;;20.70;99.90;;;;;;7374355;19;20404;-78
2022/06/05 11:36:09;;;;;;;8.40;3.80;;;20.90;99.90;;;;;;7370532;19;20402;-78
2022/06/05 11:38:48;;;;;;;5.03;3.63;;;21.00;99.90;;;;;;7371749;19;20454;-78
2022/06/05 11:41:27;;;;;;;3.77;3.40;;;21.20;99.90;;;;;;7372034;19;20412;-78
2022/06/05 11:44:24;;;;;;;3.63;3.33;;;21.40;99.90;;;;;;7373276;19;20442;-78
2022/06/05 11:47:04;;;;;;;5.80;3.40;;;21.80;99.90;;;;;;7349852;19;20412;-78
2022/06/05 11:49:52;;;;;;;4.90;3.40;;;21.90;99.90;;;;;;7358237;19;20856;-81
2022/06/05 11:52:25;;;;;;;6.57;3.10;;;;;;;;;;7366779;19;21435;-79
2022/06/05 11:55:04;;;;;;;2.90;2.60;;;25.10;99.90;;;;;;7364653;19;21227;-80
2022/06/05 11:57:40;;;;;;;2.70;2.37;;;26.70;99.90;;;;;;7368339;19;20477;-78
2022/06/05 12:00:17;;;;;;;2.53;2.33;;;28.20;99.90;;;;;;7370608;19;20412;-77
2022/06/05 12:02:59;;;;;;;4.00;2.40;;;29.20;99.90;;;;;;7360675;19;20412;-82
2022/06/05 12:05:38;;;;;;;4.07;2.40;;;30.20;93.80;;;;;;7362961;19;20433;-78
2022/06/05 12:08:11;;;;;;;5.77;2.50;;;30.70;91.90;;;;;;7362588;19;21445;-80
2022/06/05 12:10:50;;;;;;;3.87;2.00;;;31.10;80.60;;;;;;7369864;19;20408;-78
2022/06/05 12:13:37;;;;;;;2.93;2.03;;;31.10;77.50;;;;;;7365606;19;20384;-75
2022/06/05 12:16:10;;;;;;;2.97;2.10;;;29.60;80.80;;;;;;7353728;19;20396;-80
2022/06/05 12:18:53;;;;;;;3.70;2.10;;;29.50;83.00;;;;;;7355899;19;20429;-80
2022/06/05 12:21:26;;;;;;;6.17;2.00;;;29.60;82.80;;;;;;7356905;19;20486;-81
2022/06/05 12:24:04;;;;;;;2.87;1.77;;;29.70;80.60;;;;;;7362116;19;20534;-80
2022/06/05 12:26:41;;;;;;;5.77;2.00;;;29.10;79.60;;;;;;7353022;19;20724;-81
2022/06/05 12:29:19;;;;;;;3.23;1.67;;;28.00;82.10;;;;;;7357102;19;20409;-88
2022/06/05 12:31:58;;;;;;;4.70;2.47;;;27.80;85.80;;;;;;7365903;19;21199;-83
2022/06/05 12:34:37;;;;;;;3.40;1.70;;;27.40;90.50;;;;;;7367125;19;20418;-81
2022/06/05 12:37:16;;;;;;;2.57;1.87;;;27.30;91.70;;;;;;7367397;19;20400;-80
2022/06/05 12:39:49;;;;;;;4.20;2.57;;;26.70;93.10;;;;;;7359595;19;20407;-81
2022/06/05 12:42:36;;;;;;;4.50;2.10;;;26.80;93.50;;;;;;7361834;19;20425;-82
2022/06/05 12:45:08;;;;;;;4.43;2.17;;;27.30;91.70;;;;;;7362270;19;20439;-80
2022/06/05 12:48:02;;;;;;;5.47;2.60;;;28.30;91.10;;;;;;7346708;19;20936;-79
2022/06/05 12:50:57;;;;;;;2.97;2.00;;;29.70;84.10;;;;;;7360567;19;20412;-79
2022/06/05 12:53:34;;;;;;;2.67;1.60;;;31.50;74.00;;;;;;7367937;19;20459;-78
2022/06/05 12:56:16;;;;;;;3.80;2.00;;;33.50;60.20;;;;;;7363862;19;20475;-80
2022/06/05 12:58:56;;;;;;;4.80;2.33;;;34.40;56.80;;;;;;7362025;19;21264;-83
2022/06/05 13:01:30;;;;;;;5.63;1.97;;;35.00;53.80;;;;;;7366615;19;20973;-81
2022/06/05 13:04:04;;;;;;;3.20;1.90;;;33.90;51.50;;;;;;7364576;19;20383;-76
2022/06/05 13:06:51;;;;;;;2.83;2.10;;;32.50;55.30;;;;;;7368570;19;20416;-82
2022/06/05 13:09:28;;;;;;;5.30;2.00;;;32.30;56.70;;;;;;7362076;19;20455;-82
2022/06/05 13:12:03;;;;;;;2.20;1.67;;;32.40;58.40;;;;;;7368319;19;20412;-81
2022/06/05 13:14:48;;;;;;;5.10;1.77;;;32.90;56.50;;;;;;7367169;19;20521;-80
2022/06/05 13:17:35;;;;;;;3.10;1.70;;;32.30;55.20;;;;;;7360239;19;20455;-82
2022/06/05 13:20:20;;;;;;;1.73;1.60;;;31.40;56.40;;;;;;7375154;19;20372;-81
2022/06/05 13:22:58;;;;;;;4.50;2.10;;;30.70;59.10;;;;;;7379075;19;20364;-73
2022/06/05 13:25:44;;;;;;;3.10;2.00;;;29.40;63.50;;;;;;7379467;19;21050;-78
2022/06/05 13:28:35;;;;;;;4.50;2.03;;;28.40;67.60;;;;;;7373216;19;20480;-84
2022/06/05 13:31:26;;;;;;;3.10;1.90;;;27.50;72.90;;;;;;7375502;19;20376;-87
2022/06/05 13:34:03;;;;;;;4.13;1.60;;;27.60;74.50;;;;;;7372691;19;20408;-88
2022/06/05 13:36:37;;;;;;;3.97;1.80;;;27.80;74.10;;;;;;7383840;19;20918;-92
2022/06/05 13:39:26;;;;;;;3.37;2.10;;;28.00;72.10;;;;;;7382218;19;20400;-88
2022/06/05 13:42:00;;;;;;;3.30;2.07;;;27.80;73.70;;;;;;7390083;19;20680;-90